sensor_id;sensor_type;location;lat;lon;timestamp;pressure;altitude;pressure_sealevel;temperature;humidity
65175;BME280;51761;42.126;24.752;2023-02-14T00:01:43;101043.69;;;5.37;52.71
65175;BME280;51761;42.126;24.752;2023-02-14T00:04:09;101058.88;;;5.43;52.84
65175;BME280;51761;42.126;24.752;2023-02-14T00:06:34;101053.25;;;5.39;52.93
65175;BME280;51761;42.126;24.752;2023-02-14T00:09:04;101040.28;;;5.28;52.93
65175;BME280;51761;42.126;24.752;2023-02-14T00:11:30;101048.41;;;5.36;52.64
65175;BME280;51761;42.126;24.752;2023-02-14T00:13:57;101030.50;;;5.18;52.77
65175;BME280;51761;42.126;24.752;2023-02-14T00:16:41;101025.44;;;5.08;52.89
65175;BME280;51761;42.126;24.752;2023-02-14T00:19:07;101052.22;;;5.16;53.00
65175;BME280;51761;42.126;24.752;2023-02-14T00:21:36;101052.81;;;5.10;53.06
65175;BME280;51761;42.126;24.752;2023-02-14T00:24:12;101033.31;;;5.06;52.86
65175;BME280;51761;42.126;24.752;2023-02-14T00:26:38;101057.81;;;5.20;52.50
65175;BME280;51761;42.126;24.752;2023-02-14T00:29:05;101036.63;;;5.12;52.53
65175;BME280;51761;42.126;24.752;2023-02-14T00:31:31;101056.78;;;5.24;52.42
65175;BME280;51761;42.126;24.752;2023-02-14T00:33:57;101052.91;;;5.13;52.43
65175;BME280;51761;42.126;24.752;2023-02-14T00:36:22;101028.03;;;5.01;52.58
65175;BME280;51761;42.126;24.752;2023-02-14T00:38:48;101035.28;;;5.06;52.38
65175;BME280;51761;42.126;24.752;2023-02-14T00:41:13;101048.63;;;5.16;52.22
65175;BME280;51761;42.126;24.752;2023-02-14T00:43:52;101046.22;;;5.14;52.20
65175;BME280;51761;42.126;24.752;2023-02-14T00:46:20;101052.66;;;5.18;52.18
65175;BME280;51761;42.126;24.752;2023-02-14T00:48:46;101032.59;;;5.09;51.86
65175;BME280;51761;42.126;24.752;2023-02-14T00:51:12;101048.34;;;5.21;51.77
65175;BME280;51761;42.126;24.752;2023-02-14T00:53:37;101046.97;;;5.27;51.54
65175;BME280;51761;42.126;24.752;2023-02-14T00:56:03;101055.38;;;5.30;51.26
65175;BME280;51761;42.126;24.752;2023-02-14T00:58:29;101043.63;;;5.21;51.21
65175;BME280;51761;42.126;24.752;2023-02-14T01:00:55;101051.69;;;5.26;51.12
65175;BME280;51761;42.126;24.752;2023-02-14T01:03:21;101059.28;;;5.29;51.08
65175;BME280;51761;42.126;24.752;2023-02-14T01:05:47;101063.22;;;5.28;51.07
65175;BME280;51761;42.126;24.752;2023-02-14T01:08:13;101057.81;;;5.20;51.37
65175;BME280;51761;42.126;24.752;2023-02-14T01:10:39;101053.72;;;5.14;51.29
65175;BME280;51761;42.126;24.752;2023-02-14T01:13:05;101033.94;;;5.00;51.25
65175;BME280;51761;42.126;24.752;2023-02-14T01:15:31;101050.84;;;5.10;51.15
65175;BME280;51761;42.126;24.752;2023-02-14T01:17:57;101042.19;;;5.12;51.13
65175;BME280;51761;42.126;24.752;2023-02-14T01:20:23;101037.94;;;5.02;51.30
65175;BME280;51761;42.126;24.752;2023-02-14T01:22:50;101028.03;;;5.01;51.41
65175;BME280;51761;42.126;24.752;2023-02-14T01:25:16;101024.59;;;4.92;51.58
65175;BME280;51761;42.126;24.752;2023-02-14T01:27:41;100999.03;;;4.83;51.49
65175;BME280;51761;42.126;24.752;2023-02-14T01:30:08;101008.50;;;4.82;51.63
65175;BME280;51761;42.126;24.752;2023-02-14T01:32:34;101017.47;;;4.91;51.71
65175;BME280;51761;42.126;24.752;2023-02-14T01:34:59;101025.16;;;4.98;51.63
65175;BME280;51761;42.126;24.752;2023-02-14T01:37:25;101011.56;;;4.93;51.71
65175;BME280;51761;42.126;24.752;2023-02-14T01:39:51;101020.09;;;5.00;51.68
65175;BME280;51761;42.126;24.752;2023-02-14T01:42:16;101010.97;;;4.99;51.41
65175;BME280;51761;42.126;24.752;2023-02-14T01:45:18;101027.88;;;5.10;51.54
65175;BME280;51761;42.126;24.752;2023-02-14T01:47:46;101004.38;;;5.04;51.40
65175;BME280;51761;42.126;24.752;2023-02-14T01:50:28;101025.22;;;5.13;51.48
65175;BME280;51761;42.126;24.752;2023-02-14T01:53:02;101021.19;;;5.11;51.37
65175;BME280;51761;42.126;24.752;2023-02-14T01:55:31;101012.75;;;5.07;51.04
65175;BME280;51761;42.126;24.752;2023-02-14T02:00:23;101007.25;;;5.23;50.93
65175;BME280;51761;42.126;24.752;2023-02-14T02:03:08;100991.06;;;5.09;51.01
65175;BME280;51761;42.126;24.752;2023-02-14T02:05:37;100998.16;;;5.22;51.00
65175;BME280;51761;42.126;24.752;2023-02-14T02:08:04;100987.44;;;5.21;50.73
65175;BME280;51761;42.126;24.752;2023-02-14T02:10:29;100995.13;;;5.27;50.78
65175;BME280;51761;42.126;24.752;2023-02-14T02:13:00;100989.59;;;5.27;50.68
65175;BME280;51761;42.126;24.752;2023-02-14T02:15:30;100985.81;;;5.20;50.96
65175;BME280;51761;42.126;24.752;2023-02-14T02:18:07;100982.25;;;5.19;50.64
65175;BME280;51761;42.126;24.752;2023-02-14T02:34:11;100983.06;;;5.35;50.63
65175;BME280;51761;42.126;24.752;2023-02-14T02:36:50;100967.53;;;5.31;50.27
65175;BME280;51761;42.126;24.752;2023-02-14T02:48:09;100961.28;;;5.34;50.12
65175;BME280;51761;42.126;24.752;2023-02-14T02:50:42;100983.47;;;5.49;50.12
65175;BME280;51761;42.126;24.752;2023-02-14T02:56:02;100974.34;;;5.49;50.46
65175;BME280;51761;42.126;24.752;2023-02-14T02:58:56;100976.81;;;5.38;50.31
65175;BME280;51761;42.126;24.752;2023-02-14T03:01:27;100974.03;;;5.38;50.46
65175;BME280;51761;42.126;24.752;2023-02-14T03:03:58;100960.41;;;5.30;50.33
65175;BME280;51761;42.126;24.752;2023-02-14T03:06:44;100948.75;;;5.24;50.46
65175;BME280;51761;42.126;24.752;2023-02-14T03:12:05;100949.94;;;5.23;50.57
65175;BME280;51761;42.126;24.752;2023-02-14T03:14:34;100941.31;;;5.13;50.81
65175;BME280;51761;42.126;24.752;2023-02-14T03:17:33;100938.44;;;5.09;50.92
65175;BME280;51761;42.126;24.752;2023-02-14T03:20:19;100948.41;;;5.10;51.59
65175;BME280;51761;42.126;24.752;2023-02-14T03:28:19;100942.47;;;4.96;51.61
65175;BME280;51761;42.126;24.752;2023-02-14T03:36:41;100933.81;;;4.98;51.78
65175;BME280;51761;42.126;24.752;2023-02-14T03:39:20;100933.00;;;4.97;51.83
65175;BME280;51761;42.126;24.752;2023-02-14T03:41:59;100928.50;;;4.93;52.02
65175;BME280;51761;42.126;24.752;2023-02-14T03:44:29;100943.81;;;5.02;51.86
65175;BME280;51761;42.126;24.752;2023-02-14T03:47:03;100940.78;;;5.07;51.51
65175;BME280;51761;42.126;24.752;2023-02-14T03:49:34;100935.50;;;5.02;51.71
65175;BME280;51761;42.126;24.752;2023-02-14T03:52:02;100905.19;;;4.94;51.46
65175;BME280;51761;42.126;24.752;2023-02-14T03:54:29;100920.16;;;5.05;51.35
65175;BME280;51761;42.126;24.752;2023-02-14T03:57:10;100922.03;;;5.01;51.07
65175;BME280;51761;42.126;24.752;2023-02-14T03:59:38;100951.63;;;5.12;51.01
65175;BME280;51761;42.126;24.752;2023-02-14T04:02:14;100948.28;;;5.07;50.64
65175;BME280;51761;42.126;24.752;2023-02-14T04:04:44;100933.59;;;4.91;50.95
65175;BME280;51761;42.126;24.752;2023-02-14T04:07:16;100956.59;;;5.07;50.64
65175;BME280;51761;42.126;24.752;2023-02-14T04:09:42;100951.16;;;5.10;50.73
65175;BME280;51761;42.126;24.752;2023-02-14T04:12:08;100927.13;;;4.99;50.97
65175;BME280;51761;42.126;24.752;2023-02-14T04:14:34;100913.31;;;4.87;50.68
65175;BME280;51761;42.126;24.752;2023-02-14T04:17:00;100932.28;;;5.00;51.07
65175;BME280;51761;42.126;24.752;2023-02-14T04:19:44;100918.38;;;4.97;51.07
65175;BME280;51761;42.126;24.752;2023-02-14T04:22:10;100921.19;;;4.85;51.48
65175;BME280;51761;42.126;24.752;2023-02-14T04:24:35;100923.59;;;4.86;51.44
65175;BME280;51761;42.126;24.752;2023-02-14T04:27:01;100914.13;;;4.87;51.49
65175;BME280;51761;42.126;24.752;2023-02-14T04:29:43;100907.22;;;4.81;51.51
65175;BME280;51761;42.126;24.752;2023-02-14T04:32:11;100910.47;;;4.83;51.54
65175;BME280;51761;42.126;24.752;2023-02-14T04:34:37;100898.47;;;4.79;51.58
65175;BME280;51761;42.126;24.752;2023-02-14T04:37:04;100906.00;;;4.79;51.67
65175;BME280;51761;42.126;24.752;2023-02-14T04:39:29;100891.16;;;4.71;51.46
65175;BME280;51761;42.126;24.752;2023-02-14T04:41:55;100895.38;;;4.81;51.40
65175;BME280;51761;42.126;24.752;2023-02-14T04:44:21;100892.78;;;4.88;51.21
65175;BME280;51761;42.126;24.752;2023-02-14T04:46:46;100889.94;;;4.84;50.75
65175;BME280;51761;42.126;24.752;2023-02-14T04:49:12;100888.25;;;4.95;50.37
65175;BME280;51761;42.126;24.752;2023-02-14T04:51:37;100876.34;;;4.95;50.41
65175;BME280;51761;42.126;24.752;2023-02-14T04:54:03;100882.59;;;4.92;50.32
65175;BME280;51761;42.126;24.752;2023-02-14T04:56:28;100883.88;;;4.94;50.32
65175;BME280;51761;42.126;24.752;2023-02-14T04:58:54;100883.44;;;4.92;50.35
65175;BME280;51761;42.126;24.752;2023-02-14T05:01:20;100872.69;;;4.91;50.30
65175;BME280;51761;42.126;24.752;2023-02-14T05:03:45;100861.59;;;4.75;50.39
65175;BME280;51761;42.126;24.752;2023-02-14T05:06:10;100859.38;;;4.81;50.53
65175;BME280;51761;42.126;24.752;2023-02-14T05:08:36;100872.19;;;4.85;50.77
65175;BME280;51761;42.126;24.752;2023-02-14T05:11:01;100853.31;;;4.75;51.05
65175;BME280;51761;42.126;24.752;2023-02-14T05:13:27;100859.28;;;4.77;51.02
65175;BME280;51761;42.126;24.752;2023-02-14T05:15:53;100831.31;;;4.67;51.16
65175;BME280;51761;42.126;24.752;2023-02-14T05:18:18;100859.22;;;4.74;51.21
65175;BME280;51761;42.126;24.752;2023-02-14T05:20:44;100852.56;;;4.63;51.54
65175;BME280;51761;42.126;24.752;2023-02-14T05:23:09;100855.16;;;4.71;51.57
65175;BME280;51761;42.126;24.752;2023-02-14T05:25:41;100862.94;;;4.81;51.45
65175;BME280;51761;42.126;24.752;2023-02-14T05:28:06;100870.13;;;4.82;51.88
65175;BME280;51761;42.126;24.752;2023-02-14T05:30:32;100876.78;;;4.81;51.87
65175;BME280;51761;42.126;24.752;2023-02-14T05:32:57;100868.97;;;4.83;51.71
65175;BME280;51761;42.126;24.752;2023-02-14T05:35:23;100879.94;;;4.95;51.70
65175;BME280;51761;42.126;24.752;2023-02-14T05:37:48;100878.19;;;5.03;51.72
65175;BME280;51761;42.126;24.752;2023-02-14T05:40:14;100870.50;;;5.27;51.10
65175;BME280;51761;42.126;24.752;2023-02-14T05:42:41;100854.75;;;5.31;51.42
65175;BME280;51761;42.126;24.752;2023-02-14T05:45:07;100869.22;;;5.71;50.08
65175;BME280;51761;42.126;24.752;2023-02-14T05:47:33;100865.72;;;5.90;49.74
65175;BME280;51761;42.126;24.752;2023-02-14T05:49:58;100836.00;;;5.90;49.15
65175;BME280;51761;42.126;24.752;2023-02-14T05:52:24;100869.78;;;6.30;48.58
65175;BME280;51761;42.126;24.752;2023-02-14T05:54:50;100850.97;;;6.61;47.41
65175;BME280;51761;42.126;24.752;2023-02-14T05:57:15;100831.78;;;6.94;46.70
65175;BME280;51761;42.126;24.752;2023-02-14T05:59:41;100841.09;;;7.28;45.46
65175;BME280;51761;42.126;24.752;2023-02-14T06:02:07;100840.94;;;7.66;44.50
65175;BME280;51761;42.126;24.752;2023-02-14T06:04:32;100842.28;;;8.04;43.74
65175;BME280;51761;42.126;24.752;2023-02-14T06:06:57;100843.53;;;8.36;42.66
65175;BME280;51761;42.126;24.752;2023-02-14T06:09:23;100846.66;;;8.31;42.75
65175;BME280;51761;42.126;24.752;2023-02-14T06:11:49;100834.56;;;8.50;41.87
65175;BME280;51761;42.126;24.752;2023-02-14T06:14:14;100833.38;;;8.51;42.05
65175;BME280;51761;42.126;24.752;2023-02-14T06:16:40;100842.44;;;8.77;41.55
65175;BME280;51761;42.126;24.752;2023-02-14T06:19:05;100852.00;;;8.80;41.40
65175;BME280;51761;42.126;24.752;2023-02-14T06:21:31;100824.16;;;8.80;41.00
65175;BME280;51761;42.126;24.752;2023-02-14T06:23:56;100822.69;;;8.93;41.05
65175;BME280;51761;42.126;24.752;2023-02-14T06:26:22;100826.72;;;8.95;40.91
65175;BME280;51761;42.126;24.752;2023-02-14T06:28:55;100847.13;;;9.53;40.11
65175;BME280;51761;42.126;24.752;2023-02-14T06:31:21;100845.38;;;9.81;39.44
65175;BME280;51761;42.126;24.752;2023-02-14T06:33:47;100834.91;;;9.71;39.44
65175;BME280;51761;42.126;24.752;2023-02-14T06:36:12;100820.97;;;9.68;39.34
65175;BME280;51761;42.126;24.752;2023-02-14T06:38:38;100826.97;;;9.70;39.64
65175;BME280;51761;42.126;24.752;2023-02-14T06:41:06;100818.78;;;10.01;38.95
65175;BME280;51761;42.126;24.752;2023-02-14T06:43:32;100844.97;;;9.79;39.57
65175;BME280;51761;42.126;24.752;2023-02-14T06:45:58;100843.75;;;10.45;38.65
65175;BME280;51761;42.126;24.752;2023-02-14T06:48:23;100836.88;;;10.25;38.76
65175;BME280;51761;42.126;24.752;2023-02-14T06:50:49;100855.78;;;10.63;38.54
65175;BME280;51761;42.126;24.752;2023-02-14T06:53:14;100840.59;;;10.50;38.34
65175;BME280;51761;42.126;24.752;2023-02-14T06:55:40;100853.78;;;10.63;38.39
65175;BME280;51761;42.126;24.752;2023-02-14T06:58:05;100847.44;;;10.77;38.80
65175;BME280;51761;42.126;24.752;2023-02-14T07:00:31;100835.13;;;10.98;37.64
65175;BME280;51761;42.126;24.752;2023-02-14T07:02:57;100844.72;;;10.98;38.91
65175;BME280;51761;42.126;24.752;2023-02-14T07:05:23;100846.38;;;11.47;37.15
65175;BME280;51761;42.126;24.752;2023-02-14T07:07:48;100830.78;;;11.53;37.03
65175;BME280;51761;42.126;24.752;2023-02-14T07:10:14;100843.97;;;11.35;36.86
65175;BME280;51761;42.126;24.752;2023-02-14T07:12:40;100838.00;;;11.68;36.40
65175;BME280;51761;42.126;24.752;2023-02-14T07:15:07;100849.19;;;11.72;36.23
65175;BME280;51761;42.126;24.752;2023-02-14T07:17:33;100851.19;;;11.57;36.36
65175;BME280;51761;42.126;24.752;2023-02-14T07:19:59;100843.53;;;11.16;36.88
65175;BME280;51761;42.126;24.752;2023-02-14T07:22:25;100847.56;;;11.53;36.50
65175;BME280;51761;42.126;24.752;2023-02-14T07:24:50;100825.59;;;11.24;36.71
65175;BME280;51761;42.126;24.752;2023-02-14T07:27:16;100844.41;;;11.65;36.28
65175;BME280;51761;42.126;24.752;2023-02-14T07:29:41;100841.22;;;11.70;36.55
65175;BME280;51761;42.126;24.752;2023-02-14T07:32:07;100843.56;;;11.82;36.39
65175;BME280;51761;42.126;24.752;2023-02-14T07:34:33;100821.19;;;11.72;36.41
65175;BME280;51761;42.126;24.752;2023-02-14T07:36:59;100827.56;;;11.86;36.35
65175;BME280;51761;42.126;24.752;2023-02-14T07:39:25;100817.16;;;11.97;36.37
65175;BME280;51761;42.126;24.752;2023-02-14T07:41:50;100823.19;;;11.89;36.39
65175;BME280;51761;42.126;24.752;2023-02-14T07:44:16;100815.88;;;12.23;36.12
65175;BME280;51761;42.126;24.752;2023-02-14T07:46:41;100829.09;;;12.22;36.01
65175;BME280;51761;42.126;24.752;2023-02-14T07:49:07;100824.72;;;12.07;36.05
65175;BME280;51761;42.126;24.752;2023-02-14T07:51:32;100828.38;;;11.94;36.43
65175;BME280;51761;42.126;24.752;2023-02-14T07:53:58;100819.94;;;12.04;36.30
65175;BME280;51761;42.126;24.752;2023-02-14T07:56:23;100810.78;;;11.76;36.48
65175;BME280;51761;42.126;24.752;2023-02-14T07:58:49;100827.31;;;12.63;35.37
65175;BME280;51761;42.126;24.752;2023-02-14T08:01:15;100813.53;;;12.89;35.22
65175;BME280;51761;42.126;24.752;2023-02-14T08:03:41;100796.75;;;12.93;35.05
65175;BME280;51761;42.126;24.752;2023-02-14T08:06:10;100811.06;;;13.09;34.64
65175;BME280;51761;42.126;24.752;2023-02-14T08:08:36;100801.47;;;13.54;34.23
65175;BME280;51761;42.126;24.752;2023-02-14T08:11:01;100836.03;;;13.91;33.41
65175;BME280;51761;42.126;24.752;2023-02-14T08:13:27;100837.38;;;13.76;33.62
65175;BME280;51761;42.126;24.752;2023-02-14T08:15:53;100824.81;;;14.28;33.32
65175;BME280;51761;42.126;24.752;2023-02-14T08:18:37;100843.69;;;14.27;32.63
65175;BME280;51761;42.126;24.752;2023-02-14T08:21:05;100850.78;;;13.99;33.18
65175;BME280;51761;42.126;24.752;2023-02-14T08:23:31;100829.94;;;13.96;32.95
65175;BME280;51761;42.126;24.752;2023-02-14T08:25:56;100840.22;;;14.13;33.05
65175;BME280;51761;42.126;24.752;2023-02-14T08:28:22;100841.53;;;14.02;33.48
65175;BME280;51761;42.126;24.752;2023-02-14T08:30:48;100867.97;;;13.64;34.15
65175;BME280;51761;42.126;24.752;2023-02-14T08:33:14;100862.94;;;14.29;33.55
65175;BME280;51761;42.126;24.752;2023-02-14T08:35:40;100845.06;;;14.46;33.52
65175;BME280;51761;42.126;24.752;2023-02-14T08:38:06;100856.97;;;14.90;32.51
65175;BME280;51761;42.126;24.752;2023-02-14T08:40:32;100854.47;;;14.32;33.83
65175;BME280;51761;42.126;24.752;2023-02-14T08:42:59;100868.22;;;14.57;33.32
65175;BME280;51761;42.126;24.752;2023-02-14T08:45:24;100878.97;;;14.65;32.49
65175;BME280;51761;42.126;24.752;2023-02-14T08:47:50;100861.50;;;14.81;32.52
65175;BME280;51761;42.126;24.752;2023-02-14T08:50:17;100844.66;;;14.47;32.63
65175;BME280;51761;42.126;24.752;2023-02-14T08:52:43;100840.78;;;14.34;33.17
65175;BME280;51761;42.126;24.752;2023-02-14T08:55:10;100825.88;;;14.41;32.89
65175;BME280;51761;42.126;24.752;2023-02-14T08:57:36;100846.25;;;14.48;33.13
65175;BME280;51761;42.126;24.752;2023-02-14T09:00:03;100815.03;;;14.39;32.89
65175;BME280;51761;42.126;24.752;2023-02-14T09:02:29;100841.53;;;14.72;33.28
65175;BME280;51761;42.126;24.752;2023-02-14T09:04:54;100841.47;;;15.35;32.46
65175;BME280;51761;42.126;24.752;2023-02-14T09:07:20;100830.47;;;15.67;31.24
65175;BME280;51761;42.126;24.752;2023-02-14T09:09:45;100822.81;;;15.15;32.37
65175;BME280;51761;42.126;24.752;2023-02-14T09:12:11;100815.59;;;15.14;31.92
65175;BME280;51761;42.126;24.752;2023-02-14T09:14:38;100814.09;;;15.09;32.15
65175;BME280;51761;42.126;24.752;2023-02-14T09:17:05;100796.47;;;15.05;32.19
65175;BME280;51761;42.126;24.752;2023-02-14T09:19:34;100802.63;;;14.97;32.21
65175;BME280;51761;42.126;24.752;2023-02-14T09:22:00;100797.72;;;15.01;32.29
65175;BME280;51761;42.126;24.752;2023-02-14T09:24:31;100786.75;;;14.83;32.58
65175;BME280;51761;42.126;24.752;2023-02-14T09:26:57;100786.63;;;14.64;32.86
65175;BME280;51761;42.126;24.752;2023-02-14T09:29:23;100793.22;;;15.07;32.13
65175;BME280;51761;42.126;24.752;2023-02-14T09:31:53;100804.44;;;15.10;32.20
65175;BME280;51761;42.126;24.752;2023-02-14T09:34:19;100779.78;;;14.91;32.57
65175;BME280;51761;42.126;24.752;2023-02-14T09:37:03;100799.47;;;14.91;33.19
65175;BME280;51761;42.126;24.752;2023-02-14T09:39:47;100789.75;;;14.69;31.98
65175;BME280;51761;42.126;24.752;2023-02-14T09:44:54;100797.16;;;14.56;32.40
65175;BME280;51761;42.126;24.752;2023-02-14T09:47:39;100781.78;;;14.64;32.29
65175;BME280;51761;42.126;24.752;2023-02-14T09:53:02;100781.97;;;14.80;32.29
65175;BME280;51761;42.126;24.752;2023-02-14T09:55:38;100752.75;;;14.97;32.06
65175;BME280;51761;42.126;24.752;2023-02-14T09:58:28;100755.66;;;15.43;31.78
65175;BME280;51761;42.126;24.752;2023-02-14T10:01:56;100762.03;;;15.47;31.64
65175;BME280;51761;42.126;24.752;2023-02-14T10:04:17;100760.19;;;15.60;31.78
65175;BME280;51761;42.126;24.752;2023-02-14T10:12:00;100732.50;;;16.56;29.85
65175;BME280;51761;42.126;24.752;2023-02-14T10:14:28;100756.09;;;16.46;30.61
65175;BME280;51761;42.126;24.752;2023-02-14T10:19:31;100747.25;;;16.44;30.84
65175;BME280;51761;42.126;24.752;2023-02-14T10:22:16;100723.97;;;16.75;30.13
65175;BME280;51761;42.126;24.752;2023-02-14T10:24:57;100735.13;;;17.14;29.90
65175;BME280;51761;42.126;24.752;2023-02-14T10:27:35;100731.78;;;16.13;30.33
65175;BME280;51761;42.126;24.752;2023-02-14T10:32:46;100744.06;;;15.84;31.29
65175;BME280;51761;42.126;24.752;2023-02-14T10:39:02;100734.44;;;15.12;32.17
65175;BME280;51761;42.126;24.752;2023-02-14T10:41:57;100735.22;;;14.90;32.84
65175;BME280;51761;42.126;24.752;2023-02-14T10:52:41;100709.06;;;15.62;31.47
65175;BME280;51761;42.126;24.752;2023-02-14T10:55:26;100709.44;;;15.41;31.60
65175;BME280;51761;42.126;24.752;2023-02-14T10:57:53;100703.00;;;15.63;31.41
65175;BME280;51761;42.126;24.752;2023-02-14T11:00:31;100701.22;;;15.92;31.32
65175;BME280;51761;42.126;24.752;2023-02-14T11:03:00;100699.06;;;16.38;31.12
65175;BME280;51761;42.126;24.752;2023-02-14T11:08:53;100695.00;;;16.39;30.11
65175;BME280;51761;42.126;24.752;2023-02-14T11:11:27;100676.06;;;16.20;30.35
65175;BME280;51761;42.126;24.752;2023-02-14T11:13:54;100683.72;;;16.20;30.23
65175;BME280;51761;42.126;24.752;2023-02-14T11:21:45;100676.25;;;16.29;30.11
65175;BME280;51761;42.126;24.752;2023-02-14T11:24:33;100678.09;;;16.39;30.23
65175;BME280;51761;42.126;24.752;2023-02-14T11:27:19;100694.06;;;16.62;30.23
65175;BME280;51761;42.126;24.752;2023-02-14T11:29:48;100670.75;;;16.42;30.30
65175;BME280;51761;42.126;24.752;2023-02-14T11:32:24;100672.75;;;16.06;31.13
65175;BME280;51761;42.126;24.752;2023-02-14T11:35:00;100669.44;;;15.91;31.82
65175;BME280;51761;42.126;24.752;2023-02-14T11:37:30;100681.41;;;15.76;32.20
65175;BME280;51761;42.126;24.752;2023-02-14T11:39:58;100665.53;;;15.86;32.18
65175;BME280;51761;42.126;24.752;2023-02-14T11:42:50;100658.00;;;16.18;31.48
65175;BME280;51761;42.126;24.752;2023-02-14T11:53:28;100653.09;;;15.64;31.93
65175;BME280;51761;42.126;24.752;2023-02-14T11:55:57;100662.41;;;15.80;32.18
65175;BME280;51761;42.126;24.752;2023-02-14T12:00:53;100632.81;;;15.72;32.09
65175;BME280;51761;42.126;24.752;2023-02-14T12:03:18;100637.53;;;15.79;32.28
65175;BME280;51761;42.126;24.752;2023-02-14T12:05:46;100644.06;;;15.33;32.64
65175;BME280;51761;42.126;24.752;2023-02-14T12:08:13;100643.25;;;15.52;32.61
65175;BME280;51761;42.126;24.752;2023-02-14T12:10:40;100638.34;;;14.91;32.68
65175;BME280;51761;42.126;24.752;2023-02-14T12:15:37;100635.72;;;15.03;34.21
65175;BME280;51761;42.126;24.752;2023-02-14T12:31:55;100642.31;;;15.16;34.25
65175;BME280;51761;42.126;24.752;2023-02-14T12:34:23;100611.00;;;15.37;33.13
65175;BME280;51761;42.126;24.752;2023-02-14T12:39:41;100613.47;;;15.74;31.85
65175;BME280;51761;42.126;24.752;2023-02-14T12:59:17;100605.50;;;14.61;34.20
65175;BME280;51761;42.126;24.752;2023-02-14T13:12:53;100615.84;;;13.85;35.34
65175;BME280;51761;42.126;24.752;2023-02-14T13:15:43;100611.75;;;13.26;35.90
65175;BME280;51761;42.126;24.752;2023-02-14T13:21:05;100604.78;;;12.57;37.36
65175;BME280;51761;42.126;24.752;2023-02-14T13:26:06;100628.78;;;12.58;37.54
65175;BME280;51761;42.126;24.752;2023-02-14T13:28:36;100622.56;;;12.84;37.10
65175;BME280;51761;42.126;24.752;2023-02-14T13:31:03;100595.88;;;13.13;36.68
65175;BME280;51761;42.126;24.752;2023-02-14T13:33:34;100621.56;;;13.45;36.33
65175;BME280;51761;42.126;24.752;2023-02-14T13:36:06;100609.44;;;13.18;36.55
65175;BME280;51761;42.126;24.752;2023-02-14T13:38:42;100622.28;;;12.68;37.37
65175;BME280;51761;42.126;24.752;2023-02-14T13:41:09;100646.81;;;12.54;38.12
65175;BME280;51761;42.126;24.752;2023-02-14T13:43:55;100633.28;;;12.45;38.07
65175;BME280;51761;42.126;24.752;2023-02-14T13:48:58;100598.28;;;12.13;38.67
65175;BME280;51761;42.126;24.752;2023-02-14T13:51:47;100635.84;;;12.19;38.76
65175;BME280;51761;42.126;24.752;2023-02-14T13:54:43;100654.59;;;12.29;39.78
65175;BME280;51761;42.126;24.752;2023-02-14T14:02:52;100632.63;;;12.24;38.32
65175;BME280;51761;42.126;24.752;2023-02-14T14:11:04;100673.22;;;11.84;39.42
65175;BME280;51761;42.126;24.752;2023-02-14T14:18:49;100639.03;;;11.28;40.79
65175;BME280;51761;42.126;24.752;2023-02-14T14:21:38;100672.94;;;11.40;41.40
65175;BME280;51761;42.126;24.752;2023-02-14T14:24:25;100671.34;;;11.46;40.68
65175;BME280;51761;42.126;24.752;2023-02-14T14:26:58;100655.78;;;11.38;40.11
65175;BME280;51761;42.126;24.752;2023-02-14T14:29:29;100641.41;;;11.22;40.59
65175;BME280;51761;42.126;24.752;2023-02-14T14:31:55;100655.00;;;11.34;40.50
65175;BME280;51761;42.126;24.752;2023-02-14T14:34:27;100653.41;;;11.26;40.49
65175;BME280;51761;42.126;24.752;2023-02-14T14:39:29;100666.22;;;11.06;41.62
65175;BME280;51761;42.126;24.752;2023-02-14T14:42:03;100647.84;;;10.60;42.23
65175;BME280;51761;42.126;24.752;2023-02-14T14:44:32;100645.84;;;10.57;42.27
65175;BME280;51761;42.126;24.752;2023-02-14T14:46:58;100663.00;;;10.49;42.52
65175;BME280;51761;42.126;24.752;2023-02-14T14:49:25;100657.41;;;10.42;42.52
65175;BME280;51761;42.126;24.752;2023-02-14T14:51:50;100650.59;;;10.18;43.28
65175;BME280;51761;42.126;24.752;2023-02-14T14:54:20;100656.16;;;10.15;43.61
65175;BME280;51761;42.126;24.752;2023-02-14T14:56:53;100656.88;;;9.94;43.69
65175;BME280;51761;42.126;24.752;2023-02-14T15:01:47;100660.69;;;9.55;44.81
65175;BME280;51761;42.126;24.752;2023-02-14T15:04:27;100663.91;;;9.57;45.05
65175;BME280;51761;42.126;24.752;2023-02-14T15:06:55;100670.19;;;9.43;45.33
65175;BME280;51761;42.126;24.752;2023-02-14T15:09:31;100660.59;;;9.31;45.87
65175;BME280;51761;42.126;24.752;2023-02-14T15:12:01;100670.84;;;9.16;46.32
65175;BME280;51761;42.126;24.752;2023-02-14T15:14:48;100677.97;;;9.10;47.09
65175;BME280;51761;42.126;24.752;2023-02-14T15:17:26;100675.13;;;9.03;47.22
65175;BME280;51761;42.126;24.752;2023-02-14T15:20:02;100658.59;;;8.77;47.50
65175;BME280;51761;42.126;24.752;2023-02-14T15:22:40;100684.88;;;8.80;47.90
65175;BME280;51761;42.126;24.752;2023-02-14T15:25:10;100694.03;;;8.77;47.97
65175;BME280;51761;42.126;24.752;2023-02-14T15:27:40;100691.13;;;8.66;48.44
65175;BME280;51761;42.126;24.752;2023-02-14T15:32:42;100695.72;;;8.48;48.79
65175;BME280;51761;42.126;24.752;2023-02-14T15:35:10;100677.25;;;8.30;49.19
65175;BME280;51761;42.126;24.752;2023-02-14T15:37:36;100698.84;;;8.40;49.25
65175;BME280;51761;42.126;24.752;2023-02-14T15:40:03;100705.97;;;8.37;49.40
65175;BME280;51761;42.126;24.752;2023-02-14T15:42:38;100682.72;;;8.19;49.52
65175;BME280;51761;42.126;24.752;2023-02-14T15:47:40;100699.50;;;8.26;49.92
65175;BME280;51761;42.126;24.752;2023-02-14T15:50:33;100699.47;;;8.23;49.94